Time;durP1;ratioP1;P1;durP2;ratioP2;P2;SDS_P1;SDS_P2;PMS_P1;PMS_P2;Temp;Humidity;BMP_temperature;BMP_pressure;BME280_temperature;BME280_humidity;BME280_pressure;Samples;Min_cycle;Max_cycle;Signal;HPM_P1;HPM_P2
2024/04/04 05:01:10;;;;;;;2.75;0.65;;;12.10;92.90;;;;;;4472999;24;20327;-79
2024/04/04 05:03:12;;;;;;;3.13;0.63;;;12.10;92.90;;;;;;4008658;29;20080;-79
2024/04/04 05:05:16;;;;;;;2.67;0.65;;;12.10;93.10;;;;;;4010574;29;20054;-79
2024/04/04 05:07:17;;;;;;;1.92;0.70;;;12.10;93.00;;;;;;4009876;29;20500;-77
2024/04/04 05:09:19;;;;;;;3.10;0.77;;;12.10;92.90;;;;;;4010404;29;20133;-76
2024/04/04 05:11:20;;;;;;;3.72;0.70;;;12.10;93.00;;;;;;4010023;29;20054;-79
2024/04/04 05:13:22;;;;;;;3.83;0.70;;;12.10;92.90;;;;;;4009897;29;20083;-79
2024/04/04 05:15:23;;;;;;;2.10;0.50;;;12.10;92.80;;;;;;4009962;29;20389;-79
2024/04/04 05:17:26;;;;;;;3.80;0.55;;;12.10;92.70;;;;;;4010482;29;20110;-79
2024/04/04 05:19:27;;;;;;;4.15;0.90;;;12.10;92.70;;;;;;4009271;29;20103;-79
2024/04/04 05:21:29;;;;;;;4.20;0.77;;;12.10;92.70;;;;;;4009864;29;20054;-79
2024/04/04 05:23:30;;;;;;;3.40;0.65;;;12.10;92.70;;;;;;4010081;29;20054;-79
2024/04/04 05:25:32;;;;;;;4.82;0.82;;;12.20;92.70;;;;;;4009408;29;20480;-78
2024/04/04 05:27:33;;;;;;;4.55;1.00;;;12.10;92.70;;;;;;4009559;29;20098;-78
2024/04/04 05:29:34;;;;;;;5.38;1.65;;;12.10;92.60;;;;;;4009280;29;20398;-79
2024/04/04 05:31:35;;;;;;;6.07;1.20;;;12.20;92.60;;;;;;4009436;29;20057;-78
2024/04/04 05:33:38;;;;;;;4.43;0.90;;;12.20;92.60;;;;;;4009786;29;20054;-79
2024/04/04 05:35:39;;;;;;;3.72;1.05;;;12.20;92.50;;;;;;4009964;29;20046;-78
2024/04/04 05:37:41;;;;;;;4.85;1.20;;;12.20;92.60;;;;;;4009277;29;20099;-79
2024/04/04 05:39:42;;;;;;;4.70;0.98;;;12.20;92.60;;;;;;4009487;29;20123;-79
2024/04/04 05:41:44;;;;;;;5.97;1.00;;;12.30;92.30;;;;;;4009369;29;20054;-76
2024/04/04 05:43:45;;;;;;;5.22;1.13;;;12.30;92.30;;;;;;4009298;29;20485;-76
2024/04/04 05:45:46;;;;;;;4.97;1.00;;;12.40;92.20;;;;;;4009768;29;20099;-78
2024/04/04 05:47:47;;;;;;;6.43;1.40;;;12.40;92.00;;;;;;4009157;29;20054;-79
2024/04/04 05:49:50;;;;;;;4.78;1.00;;;12.40;92.00;;;;;;4009399;29;20050;-77
2024/04/04 05:51:52;;;;;;;6.20;1.17;;;12.40;92.00;;;;;;4009066;29;20099;-78
2024/04/04 05:53:54;;;;;;;6.03;1.30;;;12.40;91.80;;;;;;4009546;29;20128;-78
2024/04/04 05:55:55;;;;;;;8.15;1.25;;;12.40;91.90;;;;;;4009340;29;20102;-79
2024/04/04 05:57:57;;;;;;;5.47;1.08;;;12.50;91.80;;;;;;4009106;29;20062;-78
2024/04/04 05:59:58;;;;;;;5.90;1.23;;;12.50;91.40;;;;;;4009640;29;20046;-79
2024/04/04 06:02:00;;;;;;;9.93;1.90;;;12.60;91.40;;;;;;4009166;29;20119;-81
2024/04/04 06:04:00;;;;;;;5.13;0.95;;;12.60;91.20;;;;;;4008860;29;20058;-78
2024/04/04 06:06:04;;;;;;;5.05;1.30;;;12.70;91.00;;;;;;4008849;29;20382;-77
2024/04/04 06:08:06;;;;;;;5.25;1.33;;;12.70;90.80;;;;;;4009325;29;20054;-78
2024/04/04 06:10:09;;;;;;;7.28;1.38;;;12.70;90.80;;;;;;4008749;29;20050;-79
2024/04/04 06:12:10;;;;;;;7.25;1.33;;;12.80;90.70;;;;;;4009358;29;20072;-77
2024/04/04 06:14:12;;;;;;;6.32;1.48;;;12.80;90.70;;;;;;4008803;29;20050;-77
2024/04/04 06:16:13;;;;;;;8.00;1.35;;;12.80;90.80;;;;;;4009313;29;20403;-77
2024/04/04 06:18:15;;;;;;;7.60;1.35;;;12.80;90.80;;;;;;4009507;29;20137;-78
2024/04/04 06:20:16;;;;;;;7.55;1.40;;;12.90;90.70;;;;;;4009980;29;20106;-78
2024/04/04 06:22:19;;;;;;;7.13;1.40;;;12.80;90.70;;;;;;4009707;29;20058;-78
2024/04/04 06:24:20;;;;;;;4.20;1.27;;;12.90;90.70;;;;;;4009679;29;20396;-78
2024/04/04 06:26:21;;;;;;;7.35;1.48;;;12.90;90.70;;;;;;4008975;29;20133;-79
2024/04/04 06:28:23;;;;;;;7.35;1.50;;;12.90;90.70;;;;;;4008741;29;20488;-77
2024/04/04 06:30:24;;;;;;;7.72;1.40;;;12.90;90.70;;;;;;4009983;29;20464;-78
2024/04/04 06:32:26;;;;;;;9.18;1.30;;;12.90;90.70;;;;;;4008744;29;20053;-76
2024/04/04 06:34:26;;;;;;;7.97;1.38;;;12.90;90.80;;;;;;4008857;29;20102;-79
2024/04/04 06:36:28;;;;;;;6.75;1.45;;;13.00;90.90;;;;;;4008724;29;20049;-78
2024/04/04 06:38:31;;;;;;;7.10;1.48;;;13.00;90.80;;;;;;4008627;29;20095;-77
2024/04/04 06:40:38;;;;;;;7.20;1.45;;;13.10;90.80;;;;;;4008650;29;20060;-79
2024/04/04 06:42:39;;;;;;;5.72;1.10;;;13.10;90.70;;;;;;4008667;29;20050;-79
2024/04/04 06:44:41;;;;;;;9.02;1.33;;;13.10;90.40;;;;;;4008389;29;20103;-78
2024/04/04 06:46:42;;;;;;;5.90;1.30;;;13.10;90.40;;;;;;4008628;29;20057;-78
2024/04/04 06:48:44;;;;;;;5.72;1.40;;;13.20;90.10;;;;;;4009146;29;20058;-78
2024/04/04 06:50:45;;;;;;;6.75;1.00;;;13.30;89.80;;;;;;4009576;29;20397;-79
2024/04/04 06:52:47;;;;;;;7.53;1.60;;;13.30;89.50;;;;;;4008347;29;20110;-76
2024/04/04 06:54:49;;;;;;;5.55;1.20;;;13.40;88.90;;;;;;4008360;29;20429;-79
2024/04/04 06:56:51;;;;;;;6.68;1.30;;;13.40;88.50;;;;;;4008246;29;20050;-79
2024/04/04 06:58:52;;;;;;;5.97;1.17;;;13.50;88.30;;;;;;4008038;29;20420;-80
2024/04/04 07:00:57;;;;;;;7.13;1.42;;;13.50;88.30;;;;;;4008336;29;20053;-79
2024/04/04 07:02:58;;;;;;;5.40;1.10;;;13.60;88.10;;;;;;4009108;29;20455;-78
2024/04/04 07:05:00;;;;;;;9.20;1.58;;;13.60;87.90;;;;;;4008400;29;20323;-77
2024/04/04 07:07:01;;;;;;;6.40;1.48;;;13.70;88.00;;;;;;4008445;29;20071;-79
2024/04/04 07:09:02;;;;;;;9.27;1.80;;;13.70;88.10;;;;;;4008124;29;20106;-78
2024/04/04 07:11:05;;;;;;;5.45;1.38;;;13.80;88.10;;;;;;4008731;29;20089;-78
2024/04/04 07:13:07;;;;;;;8.02;1.30;;;13.80;88.00;;;;;;4008059;29;20054;-78
2024/04/04 07:15:08;;;;;;;6.47;1.30;;;13.90;88.10;;;;;;4007644;29;20110;-78
2024/04/04 07:17:10;;;;;;;4.10;1.02;;;13.90;87.70;;;;;;4008253;29;20512;-78
2024/04/04 07:19:11;;;;;;;5.88;1.35;;;13.90;87.30;;;;;;4008095;29;20102;-78
2024/04/04 07:21:12;;;;;;;5.82;1.27;;;14.00;87.30;;;;;;4007819;29;20453;-78
2024/04/04 07:23:13;;;;;;;7.35;1.27;;;14.00;87.60;;;;;;4007965;29;20126;-78
2024/04/04 07:25:16;;;;;;;6.30;1.10;;;14.00;87.50;;;;;;4007583;29;20054;-80
2024/04/04 07:27:18;;;;;;;9.15;1.52;;;14.10;87.60;;;;;;4007806;29;20056;-79
2024/04/04 07:29:20;;;;;;;5.40;1.30;;;14.10;87.40;;;;;;4007156;29;20053;-79
2024/04/04 07:31:21;;;;;;;4.60;1.10;;;14.10;87.30;;;;;;4007810;29;20057;-77
2024/04/04 07:33:23;;;;;;;4.70;1.10;;;14.10;86.90;;;;;;4007644;29;20098;-78
2024/04/04 07:35:24;;;;;;;6.78;1.30;;;14.20;87.20;;;;;;4007745;29;20111;-79
2024/04/04 07:37:24;;;;;;;5.80;1.38;;;14.20;86.50;;;;;;4007686;29;20050;-78
2024/04/04 07:39:27;;;;;;;6.63;1.48;;;14.20;85.60;;;;;;4007722;29;20054;-76
2024/04/04 07:41:27;;;;;;;8.27;1.67;;;14.20;85.50;;;;;;4007701;29;20245;-78
2024/04/04 07:43:31;;;;;;;7.72;1.55;;;14.20;85.00;;;;;;4007257;29;20086;-80
2024/04/04 07:45:35;;;;;;;5.07;1.30;;;14.20;84.80;;;;;;4007536;29;20054;-79
2024/04/04 07:47:36;;;;;;;5.30;1.40;;;14.10;84.30;;;;;;4007233;29;20061;-78
2024/04/04 07:49:37;;;;;;;6.60;1.60;;;14.10;84.70;;;;;;4007304;29;20106;-77
2024/04/04 07:51:40;;;;;;;6.35;1.10;;;14.20;84.90;;;;;;4007377;29;20487;-78
2024/04/04 07:53:41;;;;;;;7.38;1.25;;;14.20;85.00;;;;;;4007215;29;20130;-79
2024/04/04 07:55:43;;;;;;;6.43;1.27;;;14.20;85.00;;;;;;4006955;29;20049;-79
2024/04/04 07:57:44;;;;;;;8.15;1.40;;;14.20;85.10;;;;;;4007288;29;20461;-78
2024/04/04 07:59:47;;;;;;;6.55;1.40;;;14.20;84.80;;;;;;4007169;29;20058;-80
2024/04/04 08:01:49;;;;;;;7.97;1.40;;;14.20;84.90;;;;;;4007139;29;20085;-79
2024/04/04 08:03:51;;;;;;;9.23;1.50;;;14.20;84.40;;;;;;4007167;29;20057;-79
2024/04/04 08:05:55;;;;;;;5.95;1.50;;;14.20;84.60;;;;;;4007160;29;20141;-79
2024/04/04 08:07:57;;;;;;;7.03;1.50;;;14.30;84.70;;;;;;4007185;29;20068;-79
2024/04/04 08:09:59;;;;;;;8.15;1.40;;;14.30;84.40;;;;;;4007221;29;20124;-79
2024/04/04 08:12:01;;;;;;;5.70;1.25;;;14.40;84.20;;;;;;4007744;29;20480;-79
2024/04/04 08:14:02;;;;;;;6.68;1.50;;;14.40;84.10;;;;;;4007225;29;20054;-79
2024/04/04 08:16:07;;;;;;;5.38;1.25;;;14.40;83.10;;;;;;4007311;29;20137;-78
2024/04/04 08:18:07;;;;;;;8.77;1.38;;;14.40;83.60;;;;;;4007587;29;20132;-78
2024/04/04 08:20:14;;;;;;;5.10;1.30;;;14.40;83.20;;;;;;4007144;29;20167;-77
2024/04/04 08:22:15;;;;;;;5.45;1.60;;;14.40;83.50;;;;;;4007216;29;20058;-79
2024/04/04 08:24:16;;;;;;;9.73;1.23;;;14.50;83.80;;;;;;4007590;29;20056;-79
2024/04/04 08:26:22;;;;;;;3.65;0.90;;;14.50;83.00;;;;;;4007124;29;20058;-78
2024/04/04 08:28:24;;;;;;;7.25;1.67;;;14.50;83.00;;;;;;4007331;29;20046;-78
2024/04/04 08:30:25;;;;;;;6.43;1.60;;;14.50;82.50;;;;;;4007215;29;20485;-77
2024/04/04 08:32:28;;;;;;;7.57;1.30;;;14.50;83.10;;;;;;4007009;29;20106;-80
2024/04/04 08:34:30;;;;;;;5.43;1.10;;;14.60;83.00;;;;;;4007065;29;20149;-79
2024/04/04 08:36:32;;;;;;;9.48;1.25;;;14.60;82.20;;;;;;4007006;29;20050;-81
2024/04/04 08:38:33;;;;;;;6.38;1.40;;;14.60;81.50;;;;;;4010031;29;20062;-78
2024/04/04 08:40:37;;;;;;;6.63;1.10;;;14.60;81.40;;;;;;4009793;29;20453;-79
2024/04/04 08:42:38;;;;;;;7.55;1.33;;;14.60;81.20;;;;;;4009937;29;20050;-79
2024/04/04 08:44:42;;;;;;;3.95;0.90;;;14.60;80.80;;;;;;4010189;29;20472;-78
2024/04/04 08:46:44;;;;;;;5.15;1.10;;;14.60;81.50;;;;;;4009934;29;20198;-77
2024/04/04 08:48:50;;;;;;;7.82;1.25;;;14.70;80.70;;;;;;4009590;29;20114;-79
2024/04/04 08:50:52;;;;;;;5.00;1.23;;;14.70;80.50;;;;;;4009949;29;20046;-79
2024/04/04 08:52:53;;;;;;;8.70;1.30;;;14.70;79.80;;;;;;4009808;29;20061;-79
2024/04/04 08:54:55;;;;;;;6.10;1.42;;;14.70;79.70;;;;;;4009696;29;20046;-79
2024/04/04 08:56:57;;;;;;;6.45;1.10;;;14.70;80.20;;;;;;4009717;29;20062;-78
2024/04/04 08:58:58;;;;;;;5.65;1.30;;;14.70;78.50;;;;;;4009987;29;20400;-78
2024/04/04 09:00:59;;;;;;;7.40;1.27;;;14.80;78.70;;;;;;4009671;29;20140;-78
2024/04/04 09:03:00;;;;;;;6.32;1.23;;;14.80;78.40;;;;;;4011042;29;20114;-78
2024/04/04 09:05:07;;;;;;;6.00;1.30;;;14.90;78.50;;;;;;4009844;29;20054;-77
2024/04/04 09:07:08;;;;;;;7.32;1.30;;;14.90;78.00;;;;;;4009935;29;20046;-78
2024/04/04 09:09:11;;;;;;;7.47;1.15;;;14.90;77.70;;;;;;4010040;29;20054;-78
2024/04/04 09:11:12;;;;;;;7.50;1.25;;;15.00;77.10;;;;;;4009463;29;20060;-77
2024/04/04 09:13:15;;;;;;;5.32;1.30;;;15.00;76.50;;;;;;4004900;29;20050;-78
2024/04/04 09:15:17;;;;;;;5.93;0.88;;;15.00;76.30;;;;;;3992324;29;20483;-82
2024/04/04 09:17:20;;;;;;;6.07;1.23;;;15.10;76.20;;;;;;3994642;29;20068;-83
2024/04/04 09:19:23;;;;;;;7.10;1.20;;;15.20;76.90;;;;;;4007751;29;20500;-81
2024/04/04 09:21:27;;;;;;;5.38;1.17;;;15.20;76.50;;;;;;4007507;29;20141;-80
2024/04/04 09:23:30;;;;;;;5.28;1.13;;;15.30;75.80;;;;;;4007342;29;20057;-82
2024/04/04 09:25:32;;;;;;;6.57;1.33;;;15.30;75.60;;;;;;4007124;29;20046;-78
2024/04/04 09:27:33;;;;;;;6.93;1.10;;;15.30;74.40;;;;;;4007219;29;20545;-77
2024/04/04 09:29:35;;;;;;;4.45;1.10;;;15.30;74.70;;;;;;4007133;29;20058;-79
2024/04/04 09:31:38;;;;;;;5.80;1.33;;;15.30;74.20;;;;;;4005173;29;20110;-79
2024/04/04 09:33:40;;;;;;;6.20;1.02;;;15.50;74.40;;;;;;4007223;29;20054;-77
2024/04/04 09:35:41;;;;;;;5.82;1.20;;;15.60;73.80;;;;;;4006775;29;20515;-79
2024/04/04 09:37:47;;;;;;;6.20;1.20;;;15.60;73.70;;;;;;4006554;29;20065;-79
2024/04/04 09:39:48;;;;;;;4.72;1.10;;;15.70;73.50;;;;;;4006872;29;20202;-78
2024/04/04 09:41:53;;;;;;;4.78;1.17;;;15.70;72.70;;;;;;4007020;29;20099;-80
2024/04/04 09:43:57;;;;;;;5.45;1.00;;;15.80;72.60;;;;;;4007024;29;20473;-79
2024/04/04 09:45:59;;;;;;;5.60;1.10;;;15.80;72.30;;;;;;4007472;29;20054;-79
2024/04/04 09:48:02;;;;;;;4.93;1.10;;;15.90;72.40;;;;;;4006609;29;20115;-80
2024/04/04 09:50:05;;;;;;;4.32;1.00;;;15.90;72.40;;;;;;4006310;29;20545;-79
2024/04/04 09:52:07;;;;;;;3.75;1.10;;;15.90;72.20;;;;;;4006974;29;20054;-79
2024/04/04 09:54:12;;;;;;;4.40;1.00;;;15.90;72.30;;;;;;4006904;29;20474;-79
2024/04/04 09:56:15;;;;;;;4.55;1.02;;;15.90;72.30;;;;;;4006640;29;20054;-79
2024/04/04 09:58:16;;;;;;;6.32;1.33;;;15.90;72.30;;;;;;4006777;29;20085;-79
2024/04/04 10:00:19;;;;;;;5.70;1.08;;;16.00;71.70;;;;;;4006660;29;20393;-79
2024/04/04 10:02:35;;;;;;;6.70;1.35;;;16.10;72.10;;;;;;4006530;29;20126;-79
2024/04/04 10:04:38;;;;;;;6.47;1.30;;;16.20;72.00;;;;;;4006727;29;20058;-79
2024/04/04 10:06:40;;;;;;;6.30;1.27;;;16.30;71.70;;;;;;4006700;29;20389;-78
2024/04/04 10:08:42;;;;;;;5.30;1.15;;;16.30;71.00;;;;;;4006692;29;20050;-79
2024/04/04 10:10:45;;;;;;;5.20;1.27;;;16.30;70.90;;;;;;4006730;29;20394;-80
2024/04/04 10:12:52;;;;;;;3.75;1.08;;;16.40;71.00;;;;;;4006485;29;20408;-80
2024/04/04 10:14:54;;;;;;;5.78;1.23;;;16.40;70.80;;;;;;4006800;29;20061;-79
2024/04/04 10:16:56;;;;;;;6.30;1.27;;;16.40;70.00;;;;;;4006756;29;20058;-79
2024/04/04 10:18:58;;;;;;;5.57;0.90;;;16.30;70.00;;;;;;4006620;29;20425;-79
2024/04/04 10:21:00;;;;;;;5.80;1.02;;;16.40;70.50;;;;;;4006449;29;20049;-79
2024/04/04 10:23:03;;;;;;;5.65;1.20;;;16.30;69.50;;;;;;4006457;29;20138;-79
2024/04/04 10:25:06;;;;;;;4.28;1.05;;;16.30;69.90;;;;;;4006031;29;20850;-78
2024/04/04 10:27:12;;;;;;;4.43;0.98;;;16.30;69.90;;;;;;4006390;29;20076;-79
2024/04/04 10:29:14;;;;;;;5.95;1.13;;;16.30;70.90;;;;;;4006203;29;20092;-78
2024/04/04 10:31:15;;;;;;;6.80;1.30;;;16.20;71.70;;;;;;4004380;29;20240;-79
2024/04/04 10:33:17;;;;;;;5.00;1.17;;;16.10;71.20;;;;;;4006423;29;20053;-79
2024/04/04 10:35:17;;;;;;;6.57;1.30;;;16.20;71.30;;;;;;4005939;29;20058;-78
2024/04/04 10:37:19;;;;;;;4.00;1.08;;;16.10;71.00;;;;;;4005661;29;20153;-78
2024/04/04 10:39:21;;;;;;;6.22;1.10;;;16.00;71.40;;;;;;4006016;29;20050;-79
2024/04/04 10:41:23;;;;;;;7.32;1.20;;;15.90;72.00;;;;;;4006065;29;20110;-79
2024/04/04 10:43:25;;;;;;;4.35;1.02;;;15.90;72.50;;;;;;4006461;29;20095;-80
2024/04/04 10:45:29;;;;;;;4.72;1.30;;;15.90;72.90;;;;;;4006416;29;20154;-79
2024/04/04 10:47:31;;;;;;;6.03;1.40;;;15.90;73.50;;;;;;4005994;29;20104;-79
2024/04/04 10:49:33;;;;;;;3.50;0.82;;;15.80;74.20;;;;;;4006036;29;20144;-80
2024/04/04 10:51:34;;;;;;;2.92;0.65;;;15.80;75.60;;;;;;4005947;29;20061;-79
2024/04/04 10:53:36;;;;;;;4.22;1.00;;;15.70;76.00;;;;;;4006011;29;20061;-79
2024/04/04 10:55:37;;;;;;;6.72;1.52;;;15.70;77.40;;;;;;4006265;29;20057;-79
2024/04/04 10:57:40;;;;;;;5.50;1.38;;;15.60;77.60;;;;;;4006089;29;20094;-79
2024/04/04 10:59:43;;;;;;;6.97;1.02;;;15.60;78.00;;;;;;4005716;29;20080;-78
2024/04/04 11:01:46;;;;;;;3.78;0.90;;;15.50;78.10;;;;;;4005530;29;20072;-80
2024/04/04 11:03:47;;;;;;;4.70;1.20;;;15.60;78.90;;;;;;4006020;29;20106;-79
2024/04/04 11:05:47;;;;;;;4.10;1.10;;;15.60;79.60;;;;;;4005569;29;20050;-79
2024/04/04 11:07:57;;;;;;;5.70;1.20;;;15.70;79.60;;;;;;4005915;29;20097;-79
2024/04/04 11:09:58;;;;;;;5.13;1.17;;;15.70;81.20;;;;;;4005949;29;20068;-79
2024/04/04 11:12:01;;;;;;;7.18;1.10;;;15.70;80.60;;;;;;4005840;29;20057;-79
2024/04/04 11:14:02;;;;;;;5.03;1.20;;;15.60;81.60;;;;;;4006041;29;20061;-79
2024/04/04 11:16:06;;;;;;;6.55;1.55;;;15.70;82.00;;;;;;4005781;29;20054;-79
2024/04/04 11:18:08;;;;;;;4.60;1.10;;;15.70;81.60;;;;;;4005563;29;20062;-79
2024/04/04 11:20:14;;;;;;;6.43;1.42;;;15.80;81.40;;;;;;4005736;29;20057;-79
2024/04/04 11:22:14;;;;;;;4.50;1.10;;;15.80;81.80;;;;;;4005716;29;20617;-79
2024/04/04 11:24:17;;;;;;;4.68;1.23;;;15.90;81.80;;;;;;4005529;29;20177;-79
2024/04/04 11:26:20;;;;;;;3.92;1.15;;;16.00;81.00;;;;;;4005311;29;20060;-79
2024/04/04 11:28:20;;;;;;;6.32;1.33;;;16.00;80.00;;;;;;4005978;29;20050;-79
2024/04/04 11:30:22;;;;;;;5.80;1.30;;;16.10;80.50;;;;;;4005468;29;20149;-79
2024/04/04 11:32:25;;;;;;;5.20;1.27;;;16.10;79.40;;;;;;4003711;29;20050;-78
2024/04/04 11:34:27;;;;;;;5.00;1.20;;;16.10;79.70;;;;;;4005551;29;20496;-77
2024/04/04 11:36:28;;;;;;;4.57;1.00;;;16.20;78.90;;;;;;4005441;29;20083;-80
2024/04/04 11:38:31;;;;;;;7.18;1.17;;;16.30;78.70;;;;;;4005311;29;20065;-79
2024/04/04 11:40:32;;;;;;;4.60;1.17;;;16.30;78.70;;;;;;4005360;29;20062;-79
2024/04/04 11:42:34;;;;;;;4.43;0.95;;;16.30;78.40;;;;;;4005625;29;20148;-79
2024/04/04 11:44:35;;;;;;;6.28;1.27;;;16.20;78.90;;;;;;4005438;29;20062;-79
2024/04/04 11:46:36;;;;;;;5.88;1.30;;;16.20;79.40;;;;;;4005478;29;20449;-78
2024/04/04 11:48:39;;;;;;;4.40;1.20;;;16.20;79.80;;;;;;4005285;29;20472;-78
2024/04/04 11:50:41;;;;;;;5.07;1.20;;;16.20;80.10;;;;;;4005043;29;20449;-78
2024/04/04 11:52:44;;;;;;;5.45;1.20;;;16.10;80.70;;;;;;4005373;29;20056;-80
2024/04/04 11:54:48;;;;;;;4.72;1.15;;;16.00;80.60;;;;;;4005976;29;20097;-77
2024/04/04 11:56:48;;;;;;;5.20;1.40;;;15.90;81.00;;;;;;4005649;29;20141;-78
2024/04/04 11:58:50;;;;;;;7.10;1.17;;;15.90;82.20;;;;;;4005309;29;20053;-79
2024/04/04 12:00:51;;;;;;;6.32;1.40;;;15.90;83.30;;;;;;4005321;29;20450;-78
2024/04/04 12:02:53;;;;;;;5.22;1.17;;;15.80;83.60;;;;;;4005297;29;20473;-77
2024/04/04 12:04:56;;;;;;;4.05;1.05;;;15.70;85.00;;;;;;4004736;29;20106;-80
2024/04/04 12:06:57;;;;;;;8.30;1.45;;;15.70;86.40;;;;;;4005338;29;20081;-79
2024/04/04 12:08:58;;;;;;;5.47;1.20;;;15.60;87.00;;;;;;4005198;29;20122;-79
2024/04/04 12:11:04;;;;;;;4.93;1.27;;;15.60;88.20;;;;;;4004990;29;20058;-79
2024/04/04 12:13:05;;;;;;;6.00;1.27;;;15.50;89.10;;;;;;4004370;29;20065;-79
2024/04/04 12:15:08;;;;;;;5.53;1.15;;;15.30;90.10;;;;;;4005089;29;20423;-80
2024/04/04 12:17:16;;;;;;;5.43;1.25;;;15.10;91.30;;;;;;4004783;29;20126;-79
2024/04/04 12:19:26;;;;;;;8.50;1.73;;;15.00;92.60;;;;;;4004983;29;20137;-78
2024/04/04 12:21:29;;;;;;;5.82;1.52;;;14.70;95.10;;;;;;4005212;29;20485;-79
2024/04/04 12:23:30;;;;;;;5.05;1.50;;;14.50;95.90;;;;;;4005171;29;20054;-77
2024/04/04 12:25:32;;;;;;;4.72;1.40;;;14.50;96.40;;;;;;4004909;29;20504;-78
2024/04/04 12:27:33;;;;;;;6.40;1.33;;;14.60;96.90;;;;;;4004989;29;20513;-78
2024/04/04 12:29:34;;;;;;;6.80;1.23;;;14.60;97.20;;;;;;4005027;29;20060;-79
2024/04/04 12:31:36;;;;;;;7.00;1.55;;;14.70;96.20;;;;;;4003383;29;20058;-78
2024/04/04 12:33:37;;;;;;;7.35;1.50;;;14.60;96.90;;;;;;4005199;29;20118;-84
2024/04/04 12:35:39;;;;;;;6.45;1.60;;;14.60;97.10;;;;;;4005794;29;20552;-86
2024/04/04 12:37:41;;;;;;;6.45;1.25;;;14.50;97.10;;;;;;4005974;29;20061;-84
2024/04/04 12:39:43;;;;;;;4.40;1.13;;;14.50;96.70;;;;;;4005472;29;20046;-85
2024/04/04 12:41:44;;;;;;;5.03;1.38;;;14.60;95.60;;;;;;4004930;29;20134;-84
2024/04/04 12:43:47;;;;;;;9.80;1.55;;;14.50;94.70;;;;;;4005708;29;20053;-86
2024/04/04 12:45:48;;;;;;;5.68;1.45;;;14.70;95.00;;;;;;4006362;29;20061;-85
2024/04/04 12:47:49;;;;;;;4.53;1.13;;;14.60;94.00;;;;;;4005346;29;20058;-85
2024/04/04 12:49:50;;;;;;;5.72;1.20;;;14.70;93.60;;;;;;4005991;29;20140;-82
2024/04/04 12:51:53;;;;;;;3.65;1.00;;;14.70;93.90;;;;;;4005850;29;20081;-82
2024/04/04 12:53:55;;;;;;;4.57;1.20;;;14.60;91.40;;;;;;4005713;29;20106;-82
2024/04/04 12:55:58;;;;;;;5.90;1.25;;;14.50;91.70;;;;;;4005464;29;20065;-83
2024/04/04 12:57:59;;;;;;;4.72;1.30;;;14.50;92.20;;;;;;4005834;29;20054;-84
2024/04/04 13:00:01;;;;;;;4.47;1.02;;;14.60;92.60;;;;;;4005714;29;20104;-86
2024/04/04 13:02:02;;;;;;;5.47;1.25;;;14.50;92.10;;;;;;4005344;29;20062;-82
2024/04/04 13:04:05;;;;;;;6.70;1.40;;;14.70;92.60;;;;;;4005378;29;20154;-83
2024/04/04 13:06:06;;;;;;;6.10;1.20;;;14.70;92.70;;;;;;4005718;29;20058;-81
2024/04/04 13:08:08;;;;;;;4.93;1.08;;;14.70;92.20;;;;;;4005491;29;20058;-83
2024/04/04 13:10:11;;;;;;;5.28;1.25;;;14.70;91.70;;;;;;4006488;29;20106;-84
2024/04/04 13:12:13;;;;;;;3.80;0.90;;;14.50;91.60;;;;;;4005770;29;20058;-85
2024/04/04 13:14:14;;;;;;;5.13;1.13;;;14.60;92.00;;;;;;4005472;29;20488;-83
2024/04/04 13:16:16;;;;;;;5.22;1.30;;;14.60;90.90;;;;;;4007227;29;20149;-85
2024/04/04 13:18:17;;;;;;;5.95;1.05;;;14.70;91.00;;;;;;4007658;29;20058;-83
2024/04/04 13:20:19;;;;;;;7.05;1.10;;;14.80;90.80;;;;;;4007121;29;20108;-83
2024/04/04 13:22:22;;;;;;;5.38;1.00;;;14.70;90.70;;;;;;4005140;29;20049;-83
2024/04/04 13:24:24;;;;;;;6.05;1.40;;;14.80;90.90;;;;;;4008441;29;20449;-84
2024/04/04 13:26:27;;;;;;;5.55;1.35;;;14.90;90.60;;;;;;4008034;29;20061;-80
2024/04/04 13:28:28;;;;;;;3.55;1.00;;;15.00;90.50;;;;;;4007823;29;20058;-77
2024/04/04 13:30:29;;;;;;;5.97;1.20;;;15.00;90.20;;;;;;4007883;29;20057;-78
2024/04/04 13:32:31;;;;;;;3.65;1.13;;;15.10;90.40;;;;;;4006118;29;20377;-78
2024/04/04 13:34:32;;;;;;;3.38;1.00;;;15.00;90.10;;;;;;4007251;29;20050;-79
2024/04/04 13:36:34;;;;;;;5.10;0.95;;;15.10;89.70;;;;;;4007622;29;20106;-78
2024/04/04 13:38:35;;;;;;;4.18;1.20;;;15.10;89.70;;;;;;4007038;29;20085;-78
2024/04/04 13:40:37;;;;;;;3.22;0.90;;;15.00;89.60;;;;;;4007374;29;20492;-77
2024/04/04 13:42:40;;;;;;;3.90;0.90;;;15.00;89.10;;;;;;4007074;29;20498;-78
2024/04/04 13:44:41;;;;;;;7.35;1.20;;;15.10;89.60;;;;;;4007424;29;20065;-78
2024/04/04 13:46:42;;;;;;;5.38;1.10;;;15.10;88.30;;;;;;4007244;29;20477;-79
2024/04/04 13:48:44;;;;;;;5.03;1.20;;;15.30;89.10;;;;;;4007330;29;20058;-78
2024/04/04 13:50:45;;;;;;;5.00;1.17;;;15.40;89.10;;;;;;4007249;29;20066;-78
2024/04/04 13:52:46;;;;;;;6.80;1.42;;;15.50;87.80;;;;;;4007075;29;20053;-77
2024/04/04 13:54:48;;;;;;;5.05;0.95;;;15.60;87.80;;;;;;4007354;29;20092;-78
2024/04/04 13:56:49;;;;;;;3.10;0.80;;;15.80;87.80;;;;;;4006630;29;20102;-79
2024/04/04 13:58:52;;;;;;;4.32;1.00;;;15.70;86.10;;;;;;4006970;29;20054;-77
2024/04/04 14:00:54;;;;;;;3.50;0.98;;;15.90;86.30;;;;;;4006364;29;20068;-79
2024/04/04 14:02:56;;;;;;;3.38;0.80;;;16.10;84.90;;;;;;4007143;29;20421;-77
2024/04/04 14:04:57;;;;;;;3.70;0.90;;;16.20;83.40;;;;;;4007225;29;20098;-79
2024/04/04 14:06:58;;;;;;;2.83;0.68;;;16.10;82.90;;;;;;4006443;29;20053;-79
2024/04/04 14:09:00;;;;;;;4.03;0.82;;;16.30;82.60;;;;;;4006992;29;20551;-78
2024/04/04 14:11:01;;;;;;;4.22;0.98;;;16.30;82.40;;;;;;4007104;29;20457;-77
2024/04/04 14:13:03;;;;;;;3.60;1.02;;;16.30;82.50;;;;;;4006603;29;20050;-78
2024/04/04 14:15:06;;;;;;;1.85;0.65;;;16.30;82.80;;;;;;4006624;29;20458;-78
2024/04/04 14:17:09;;;;;;;3.05;0.82;;;16.10;82.00;;;;;;4006271;29;20057;-78
2024/04/04 14:19:10;;;;;;;3.05;0.80;;;16.00;81.40;;;;;;4001193;29;20061;-78
2024/04/04 14:21:12;;;;;;;3.70;0.90;;;15.80;82.80;;;;;;4003220;29;20494;-78
2024/04/04 14:23:13;;;;;;;2.40;0.85;;;15.70;83.60;;;;;;3992765;29;20075;-79
2024/04/04 14:25:14;;;;;;;2.72;0.90;;;15.70;83.00;;;;;;3994207;29;20050;-78
2024/04/04 14:27:16;;;;;;;2.45;0.88;;;15.60;82.80;;;;;;4001973;29;20460;-77
2024/04/04 14:29:17;;;;;;;3.33;0.75;;;15.60;82.50;;;;;;3996422;29;20106;-78
2024/04/04 14:31:20;;;;;;;3.80;0.70;;;15.60;81.20;;;;;;3996793;29;20050;-78
2024/04/04 14:33:22;;;;;;;3.85;1.00;;;15.60;82.40;;;;;;3994193;29;20106;-78
2024/04/04 14:35:24;;;;;;;3.13;0.80;;;15.50;83.70;;;;;;3996268;29;20054;-78
2024/04/04 14:37:25;;;;;;;2.13;0.65;;;15.60;82.80;;;;;;3996406;29;20085;-79
2024/04/04 14:39:29;;;;;;;3.08;0.68;;;15.60;81.80;;;;;;3995720;29;20581;-79
2024/04/04 14:41:30;;;;;;;3.92;0.80;;;15.60;81.70;;;;;;3998654;29;20046;-77
2024/04/04 14:43:32;;;;;;;4.00;0.80;;;15.70;81.50;;;;;;3995583;29;20447;-78
2024/04/04 14:45:32;;;;;;;2.78;0.75;;;15.60;81.30;;;;;;3992985;29;20042;-78
2024/04/04 14:47:36;;;;;;;1.20;0.40;;;15.70;80.60;;;;;;4002532;29;20102;-76
2024/04/04 14:49:36;;;;;;;3.03;0.75;;;15.80;80.30;;;;;;3998333;29;20054;-78
2024/04/04 14:51:37;;;;;;;4.22;0.82;;;15.70;80.30;;;;;;3995740;29;20050;-78
2024/04/04 14:53:40;;;;;;;2.95;0.85;;;15.70;80.90;;;;;;4003048;29;20413;-78
2024/04/04 14:55:41;;;;;;;3.20;0.77;;;15.60;81.80;;;;;;3993961;29;20046;-78
2024/04/04 14:57:42;;;;;;;2.00;0.57;;;15.60;81.90;;;;;;4002660;29;20814;-79
2024/04/04 14:59:46;;;;;;;3.17;0.73;;;15.60;81.90;;;;;;4004961;29;20401;-79
2024/04/04 15:01:47;;;;;;;2.47;0.60;;;15.70;82.80;;;;;;4001269;29;20080;-77
2024/04/04 15:03:50;;;;;;;3.10;0.70;;;15.70;82.90;;;;;;3996128;29;20500;-79
2024/04/04 15:05:51;;;;;;;2.40;0.68;;;15.60;83.10;;;;;;3995092;29;20054;-78
2024/04/04 15:07:53;;;;;;;3.22;0.70;;;15.50;83.90;;;;;;3993125;29;20095;-77
2024/04/04 15:09:54;;;;;;;2.67;0.90;;;15.50;84.40;;;;;;3992365;29;20081;-79
2024/04/04 15:11:56;;;;;;;3.22;0.88;;;15.40;85.10;;;;;;3992515;29;20481;-79
2024/04/04 15:13:59;;;;;;;3.13;0.90;;;15.50;85.80;;;;;;3994676;29;20098;-79
2024/04/04 15:16:01;;;;;;;7.10;2.40;;;15.40;85.70;;;;;;3995388;29;20050;-77
2024/04/04 15:18:02;;;;;;;2.38;0.90;;;15.40;86.60;;;;;;3993392;29;20054;-80
2024/04/04 15:20:07;;;;;;;3.60;0.80;;;15.40;86.80;;;;;;3993054;29;20064;-78
2024/04/04 15:22:08;;;;;;;3.78;1.27;;;15.30;87.40;;;;;;3997456;29;20050;-78
2024/04/04 15:24:10;;;;;;;3.90;1.27;;;15.40;88.00;;;;;;3994931;29;20068;-79
2024/04/04 15:26:11;;;;;;;4.03;0.80;;;15.40;88.50;;;;;;3994411;29;20123;-78
2024/04/04 15:28:13;;;;;;;3.33;1.00;;;15.40;89.70;;;;;;3998179;29;20046;-79
2024/04/04 15:30:14;;;;;;;4.68;1.10;;;15.30;89.60;;;;;;3991858;29;20081;-78
2024/04/04 15:32:17;;;;;;;5.18;1.33;;;16.30;89.20;;;;;;3990031;29;20060;-80
2024/04/04 15:34:18;;;;;;;4.78;1.20;;;18.10;83.70;;;;;;4001431;29;20058;-78
2024/04/04 15:36:21;;;;;;;5.25;1.10;;;18.70;79.80;;;;;;3997101;29;20057;-79